Time,TemperatureF,DewpointF,PressureIn,WindDirection,WindDirectionDegrees,WindSpeedMPH,WindSpeedGustMPH,Humidity,HourlyPrecipIn,Conditions,Clouds,dailyrainin,SoftwareType,DateUTC
2013-03-28 00:00:00,41.1,32.4,29.73,NNE,15,0.0,2.0,71,0.00,,OVC090,0.00,VWS V14.01,2013-03-28 04:00:00,
2013-03-28 00:05:00,41.0,32.3,29.73,NW,322,2.0,2.0,71,0.00,,OVC090,0.00,VWS V14.01,2013-03-28 04:05:00,
2013-03-28 00:10:00,40.9,32.6,29.73,NNW,336,2.0,2.0,72,0.00,,OVC090,0.00,VWS V14.01,2013-03-28 04:10:00,
2013-03-28 00:15:00,40.8,32.5,29.73,NNE,15,0.0,1.0,72,0.00,,OVC090,0.00,VWS V14.01,2013-03-28 04:15:00,
2013-03-28 00:20:00,40.7,32.4,29.73,NNW,331,5.0,5.0,72,0.00,,OVC090,0.00,VWS V14.01,2013-03-28 04:20:00,
2013-03-28 00:25:00,40.7,32.7,29.73,SE,139,2.0,3.0,73,0.00,,OVC090,0.00,VWS V14.01,2013-03-28 04:25:00,
2013-03-28 00:30:00,40.6,33.0,29.73,ESE,117,1.0,2.0,74,0.00,,OVC090,0.00,VWS V14.01,2013-03-28 04:30:00,
2013-03-28 00:35:00,40.4,32.8,29.73,North,355,3.0,3.0,74,0.00,,OVC090,0.00,VWS V14.01,2013-03-28 04:35:00,
2013-03-28 00:40:00,40.3,33.0,29.73,NNE,13,1.0,1.0,75,0.00,,OVC090,0.00,VWS V14.01,2013-03-28 04:40:00,
2013-03-28 00:45:00,40.2,33.2,29.73,NNE,21,0.0,1.0,76,0.00,,OVC090,0.00,VWS V14.01,2013-03-28 04:45:00,
2013-03-28 00:50:00,40.0,33.1,29.73,NNW,332,2.0,3.0,76,0.00,,OVC090,0.00,VWS V14.01,2013-03-28 04:50:00,
2013-03-28 00:55:00,39.9,33.3,29.73,North,5,0.0,1.0,77,0.00,,OVC090,0.00,VWS V14.01,2013-03-28 04:55:00,
2013-03-28 01:00:00,39.8,33.2,29.73,NNW,329,0.0,0.0,77,0.00,,OVC048,0.00,VWS V14.01,2013-03-28 05:00:00,
2013-03-28 01:05:00,39.7,33.4,29.73,NNW,338,4.0,4.0,78,0.00,,OVC048,0.00,VWS V14.01,2013-03-28 05:05:00,
2013-03-28 01:10:00,39.6,33.3,29.73,South,186,0.0,0.0,78,0.00,,OVC048,0.00,VWS V14.01,2013-03-28 05:10:00,
2013-03-28 01:15:00,39.5,33.2,29.73,NE,34,1.0,2.0,78,0.00,,OVC048,0.00,VWS V14.01,2013-03-28 05:15:00,
2013-03-28 01:20:00,39.4,33.4,29.73,North,9,0.0,0.0,79,0.00,,OVC048,0.00,VWS V14.01,2013-03-28 05:20:00,
2013-03-28 01:25:00,39.3,33.3,29.73,East,94,0.0,0.0,79,0.00,,OVC048,0.00,VWS V14.01,2013-03-28 05:25:00,
2013-03-28 01:30:00,39.3,33.3,29.73,NNW,347,0.0,0.0,79,0.00,,OVC048,0.00,VWS V14.01,2013-03-28 05:30:00,
2013-03-28 01:35:00,39.2,33.2,29.73,NNW,345,0.0,0.0,79,0.00,,OVC048,0.00,VWS V14.01,2013-03-28 05:35:00,
2013-03-28 01:40:00,39.2,33.2,29.73,NE,36,1.0,3.0,79,0.00,,OVC048,0.00,VWS V14.01,2013-03-28 05:40:00,
2013-03-28 01:45:00,39.2,33.2,29.73,SSW,196,0.0,0.0,79,0.00,,OVC048,0.00,VWS V14.01,2013-03-28 05:45:00,
2013-03-28 01:50:00,39.1,33.5,29.73,NW,305,0.0,3.0,80,0.00,,OVC048,0.00,VWS V14.01,2013-03-28 05:50:00,
2013-03-28 01:55:00,39.0,33.4,29.73,NNE,24,0.0,0.0,80,0.00,,OVC048,0.00,VWS V14.01,2013-03-28 05:55:00,
2013-03-28 02:00:00,38.8,33.5,29.73,NNE,29,0.0,0.0,81,0.00,,,0.00,VWS V14.01,2013-03-28 06:00:00,
2013-03-28 02:05:00,38.7,33.4,29.73,ESE,102,0.0,0.0,81,0.00,,,0.00,VWS V14.01,2013-03-28 06:05:00,
2013-03-28 02:10:00,38.6,33.3,29.73,East,93,0.0,0.0,81,0.00,,,0.00,VWS V14.01,2013-03-28 06:10:00,
2013-03-28 02:15:00,38.6,33.6,29.73,East,87,0.0,0.0,82,0.00,,,0.00,VWS V14.01,2013-03-28 06:15:00,
2013-03-28 02:20:00,38.5,33.5,29.73,ESE,114,0.0,0.0,82,0.00,,,0.00,VWS V14.01,2013-03-28 06:20:00,
2013-03-28 02:25:00,38.4,33.4,29.73,NNE,16,0.0,0.0,82,0.00,,,0.00,VWS V14.01,2013-03-28 06:25:00,
2013-03-28 02:30:00,38.4,33.7,29.73,NE,41,0.0,0.0,83,0.00,,,0.00,VWS V14.01,2013-03-28 06:30:00,
2013-03-28 02:35:00,38.3,33.6,29.73,NE,49,0.0,0.0,83,0.00,,,0.00,VWS V14.01,2013-03-28 06:35:00,
2013-03-28 02:40:00,38.3,33.6,29.73,NNE,28,0.0,0.0,83,0.00,,,0.00,VWS V14.01,2013-03-28 06:40:00,
2013-03-28 02:45:00,38.2,33.5,29.73,NNE,30,0.0,0.0,83,0.00,,,0.00,VWS V14.01,2013-03-28 06:45:00,
2013-03-28 02:50:00,38.1,33.7,29.73,ENE,78,0.0,0.0,84,0.00,,,0.00,VWS V14.01,2013-03-28 06:50:00,
2013-03-28 02:55:00,38.1,33.7,29.73,NNW,342,0.0,0.0,84,0.00,,,0.00,VWS V14.01,2013-03-28 06:55:00,
2013-03-28 03:00:00,38.0,33.6,29.73,NNE,32,0.0,1.0,84,0.00,,,0.00,VWS V14.01,2013-03-28 07:00:00,
2013-03-28 03:05:00,38.0,33.6,29.73,North,350,0.0,0.0,84,0.00,,,0.00,VWS V14.01,2013-03-28 07:05:00,
2013-03-28 03:10:00,37.9,33.8,29.73,North,350,0.0,0.0,85,0.00,,,0.00,VWS V14.01,2013-03-28 07:10:00,
2013-03-28 03:15:00,37.9,33.8,29.73,North,355,0.0,0.0,85,0.00,,,0.00,VWS V14.01,2013-03-28 07:15:00,
2013-03-28 03:20:00,37.9,33.8,29.73,North,355,0.0,0.0,85,0.00,,,0.00,VWS V14.01,2013-03-28 07:20:00,
2013-03-28 03:25:00,37.9,33.8,29.73,North,360,0.0,0.0,85,0.00,,,0.00,VWS V14.01,2013-03-28 07:25:00,
2013-03-28 03:30:00,37.9,33.8,29.73,North,360,2.0,2.0,85,0.00,,OVC034,0.00,VWS V14.01,2013-03-28 07:30:00,
2013-03-28 03:35:00,37.8,33.7,29.73,North,360,0.0,0.0,85,0.00,,OVC034,0.00,VWS V14.01,2013-03-28 07:35:00,
2013-03-28 03:40:00,37.8,34.0,29.73,North,360,0.0,0.0,86,0.00,,OVC034,0.00,VWS V14.01,2013-03-28 07:40:00,
2013-03-28 03:45:00,37.7,33.9,29.73,NNE,22,1.0,1.0,86,0.00,,OVC034,0.00,VWS V14.01,2013-03-28 07:45:00,
2013-03-28 03:50:00,37.7,34.2,29.73,North,5,1.0,1.0,87,0.00,,OVC034,0.00,VWS V14.01,2013-03-28 07:50:00,
2013-03-28 03:55:00,37.6,34.1,29.73,North,351,0.0,0.0,87,0.00,,OVC034,0.00,VWS V14.01,2013-03-28 07:55:00,
2013-03-28 04:00:00,37.5,34.0,29.74,NE,46,0.0,1.0,87,0.00,,OVC041,0.00,VWS V14.01,2013-03-28 08:00:00,
2013-03-28 04:05:00,37.4,34.2,29.74,North,355,0.0,2.0,88,0.00,,OVC041,0.00,VWS V14.01,2013-03-28 08:05:00,
2013-03-28 04:10:00,37.3,34.1,29.74,ENE,64,0.0,0.0,88,0.00,,OVC041,0.00,VWS V14.01,2013-03-28 08:10:00,
2013-03-28 04:15:00,37.2,34.3,29.74,ENE,64,0.0,0.0,89,0.00,,OVC041,0.00,VWS V14.01,2013-03-28 08:15:00,
2013-03-28 04:20:00,37.1,34.2,29.74,NNE,25,0.0,0.0,89,0.00,,OVC041,0.00,VWS V14.01,2013-03-28 08:20:00,
2013-03-28 04:25:00,37.1,34.2,29.74,NNE,24,1.0,1.0,89,0.00,,OVC041,0.00,VWS V14.01,2013-03-28 08:25:00,
2013-03-28 04:30:00,37.0,34.3,29.74,NNE,30,0.0,0.0,90,0.00,,OVC041,0.00,VWS V14.01,2013-03-28 08:30:00,
2013-03-28 04:35:00,37.0,34.3,29.74,NNE,22,0.0,0.0,90,0.00,,OVC041,0.00,VWS V14.01,2013-03-28 08:35:00,
2013-03-28 04:40:00,36.9,34.2,29.74,North,350,0.0,0.0,90,0.00,,OVC041,0.00,VWS V14.01,2013-03-28 08:40:00,
2013-03-28 04:45:00,36.8,34.4,29.74,NNE,24,0.0,0.0,91,0.00,,OVC041,0.00,VWS V14.01,2013-03-28 08:45:00,
2013-03-28 04:50:00,36.8,34.4,29.74,North,355,0.0,1.0,91,0.00,,OVC041,0.00,VWS V14.01,2013-03-28 08:50:00,
2013-03-28 04:55:00,36.6,34.2,29.74,North,355,0.0,0.0,91,0.00,,OVC041,0.00,VWS V14.01,2013-03-28 08:55:00,
2013-03-28 05:00:00,36.6,34.2,29.74,North,355,0.0,0.0,91,0.01,,,0.01,VWS V14.01,2013-03-28 09:00:00,
2013-03-28 05:05:00,36.4,34.3,29.74,North,355,0.0,0.0,92,0.01,,,0.01,VWS V14.01,2013-03-28 09:05:00,
2013-03-28 05:10:00,36.4,34.3,29.75,North,355,0.0,0.0,92,0.01,,,0.01,VWS V14.01,2013-03-28 09:10:00,
2013-03-28 05:15:00,36.2,34.1,29.75,North,355,0.0,0.0,92,0.01,,,0.01,VWS V14.01,2013-03-28 09:15:00,
2013-03-28 05:20:00,36.1,34.0,29.75,North,355,0.0,0.0,92,0.01,,,0.01,VWS V14.01,2013-03-28 09:20:00,
2013-03-28 05:25:00,36.0,33.9,29.75,North,355,0.0,0.0,92,0.01,,,0.01,VWS V14.01,2013-03-28 09:25:00,
2013-03-28 05:30:00,36.0,33.9,29.75,North,360,0.0,0.0,92,0.01,,,0.01,VWS V14.01,2013-03-28 09:30:00,
2013-03-28 05:35:00,36.0,34.2,29.75,North,360,0.0,0.0,93,0.01,,,0.01,VWS V14.01,2013-03-28 09:35:00,
2013-03-28 05:40:00,36.0,34.2,29.75,NNE,27,0.0,0.0,93,0.01,,,0.01,VWS V14.01,2013-03-28 09:40:00,
2013-03-28 05:45:00,36.0,34.2,29.75,NNE,27,0.0,0.0,93,0.01,,,0.01,VWS V14.01,2013-03-28 09:45:00,
2013-03-28 05:50:00,35.9,34.1,29.75,NNE,27,0.0,0.0,93,0.01,,,0.01,VWS V14.01,2013-03-28 09:50:00,
2013-03-28 05:55:00,35.9,34.1,29.75,NNE,30,0.0,0.0,93,0.01,,,0.01,VWS V14.01,2013-03-28 09:55:00,
2013-03-28 06:00:00,35.8,34.0,29.75,NNE,30,0.0,0.0,93,0.00,,,0.01,VWS V14.01,2013-03-28 10:00:00,
2013-03-28 06:05:00,35.7,33.9,29.75,NNE,30,0.0,0.0,93,0.00,,,0.01,VWS V14.01,2013-03-28 10:05:00,
2013-03-28 06:10:00,35.6,33.8,29.75,NNE,30,0.0,0.0,93,0.00,,,0.01,VWS V14.01,2013-03-28 10:10:00,
2013-03-28 06:15:00,35.5,33.7,29.75,NNE,30,0.0,0.0,93,0.00,,,0.01,VWS V14.01,2013-03-28 10:15:00,
2013-03-28 06:20:00,35.5,33.7,29.75,NNE,30,0.0,0.0,93,0.00,,,0.01,VWS V14.01,2013-03-28 10:20:00,
2013-03-28 06:25:00,35.4,33.6,29.76,NNE,30,0.0,0.0,93,0.00,,,0.01,VWS V14.01,2013-03-28 10:25:00,
2013-03-28 06:30:00,35.3,33.5,29.76,NNE,30,0.0,0.0,93,0.00,,,0.01,VWS V14.01,2013-03-28 10:30:00,
2013-03-28 06:35:00,35.2,33.4,29.76,NNE,30,0.0,0.0,93,0.00,,,0.01,VWS V14.01,2013-03-28 10:35:00,
2013-03-28 06:40:00,35.2,33.4,29.76,NNE,30,0.0,0.0,93,0.00,,,0.01,VWS V14.01,2013-03-28 10:40:00,
2013-03-28 06:45:00,35.2,33.4,29.76,NNE,30,0.0,0.0,93,0.00,,,0.01,VWS V14.01,2013-03-28 10:45:00,
2013-03-28 06:50:00,35.1,33.3,29.76,NNE,30,0.0,0.0,93,0.00,,,0.01,VWS V14.01,2013-03-28 10:50:00,
2013-03-28 06:55:00,35.0,33.2,29.76,NNE,30,0.0,0.0,93,0.00,,,0.01,VWS V14.01,2013-03-28 10:55:00,
2013-03-28 07:00:00,34.9,33.1,29.77,NNE,30,0.0,0.0,93,0.00,,OVC055,0.01,VWS V14.01,2013-03-28 11:00:00,
2013-03-28 07:05:00,34.9,33.1,29.77,NNE,30,0.0,0.0,93,0.00,,OVC055,0.01,VWS V14.01,2013-03-28 11:05:00,
2013-03-28 07:10:00,34.9,33.3,29.77,NNE,30,0.0,0.0,94,0.00,,OVC055,0.01,VWS V14.01,2013-03-28 11:10:00,
2013-03-28 07:15:00,35.0,33.5,29.77,NNE,30,0.0,0.0,94,0.00,,OVC055,0.01,VWS V14.01,2013-03-28 11:15:00,
2013-03-28 07:20:00,35.2,33.7,29.77,NNE,30,0.0,0.0,94,0.00,,OVC055,0.01,VWS V14.01,2013-03-28 11:20:00,
2013-03-28 07:25:00,35.5,34.0,29.77,ENE,57,0.0,0.0,94,0.00,,OVC055,0.01,VWS V14.01,2013-03-28 11:25:00,
2013-03-28 07:30:00,35.7,34.2,29.78,ENE,57,0.0,0.0,94,0.00,,OVC055,0.01,VWS V14.01,2013-03-28 11:30:00,
2013-03-28 07:35:00,36.0,34.4,29.78,ENE,57,0.0,0.0,94,0.00,,OVC055,0.01,VWS V14.01,2013-03-28 11:35:00,
2013-03-28 07:40:00,36.2,34.4,29.78,NNE,15,0.0,0.0,93,0.00,,OVC055,0.01,VWS V14.01,2013-03-28 11:40:00,
2013-03-28 07:45:00,36.4,34.6,29.78,NNE,13,0.0,0.0,93,0.00,,OVC055,0.01,VWS V14.01,2013-03-28 11:45:00,
2013-03-28 07:50:00,36.6,34.5,29.78,ENE,72,0.0,0.0,92,0.00,,OVC055,0.01,VWS V14.01,2013-03-28 11:50:00,
2013-03-28 07:55:00,36.7,34.6,29.78,North,351,0.0,0.0,92,0.00,,OVC055,0.01,VWS V14.01,2013-03-28 11:55:00,
2013-03-28 08:00:00,36.9,34.5,29.78,NNW,336,0.0,1.0,91,0.00,,OVC080,0.01,VWS V14.01,2013-03-28 12:00:00,
2013-03-28 08:05:00,37.2,34.8,29.78,NNE,21,0.0,1.0,91,0.00,,OVC080,0.01,VWS V14.01,2013-03-28 12:05:00,
2013-03-28 08:10:00,37.4,34.7,29.78,NNE,18,1.0,1.0,90,0.00,,OVC080,0.01,VWS V14.01,2013-03-28 12:10:00,
2013-03-28 08:15:00,37.5,34.8,29.78,North,11,0.0,1.0,90,0.00,,OVC080,0.01,VWS V14.01,2013-03-28 12:15:00,
2013-03-28 08:20:00,37.7,35.0,29.78,South,188,0.0,0.0,90,0.00,,OVC080,0.01,VWS V14.01,2013-03-28 12:20:00,
2013-03-28 08:25:00,37.9,35.0,29.79,West,277,0.0,1.0,89,0.00,,OVC080,0.01,VWS V14.01,2013-03-28 12:25:00,
2013-03-28 08:30:00,38.1,34.9,29.79,West,277,0.0,0.0,88,0.00,,OVC080,0.01,VWS V14.01,2013-03-28 12:30:00,
2013-03-28 08:35:00,38.3,35.1,29.79,NW,306,0.0,1.0,88,0.00,,OVC080,0.01,VWS V14.01,2013-03-28 12:35:00,
2013-03-28 08:40:00,38.4,34.9,29.79,NNE,23,0.0,0.0,87,0.00,,OVC080,0.01,VWS V14.01,2013-03-28 12:40:00,
2013-03-28 08:45:00,38.6,35.1,29.79,NE,40,0.0,1.0,87,0.00,,OVC080,0.01,VWS V14.01,2013-03-28 12:45:00,
2013-03-28 08:49:00,38.8,34.7,29.79,North,355,0.0,1.0,85,0.00,,OVC080,0.01,VWS V14.01,2013-03-28 12:49:00,
2013-03-28 08:54:00,39.2,35.1,29.79,North,360,0.0,0.0,85,0.00,,OVC080,0.01,VWS V14.01,2013-03-28 12:54:00,
2013-03-28 08:59:00,39.5,35.1,29.79,NNE,29,1.0,2.0,84,0.00,,BKN070,0.01,VWS V14.01,2013-03-28 12:59:00,
2013-03-28 09:04:00,39.8,34.8,29.79,North,355,0.0,3.0,82,0.00,,BKN070,0.01,VWS V14.01,2013-03-28 13:04:00,
2013-03-28 09:09:00,40.1,35.1,29.79,North,350,0.0,2.0,82,0.00,,BKN070,0.01,VWS V14.01,2013-03-28 13:09:00,
2013-03-28 09:14:00,40.4,35.0,29.79,WNW,301,0.0,2.0,81,0.00,,BKN070,0.01,VWS V14.01,2013-03-28 13:14:00,
2013-03-28 09:19:00,40.6,34.9,29.79,North,5,0.0,3.0,80,0.00,,BKN070,0.01,VWS V14.01,2013-03-28 13:19:00,
2013-03-28 09:24:00,40.8,34.8,29.79,East,98,0.0,0.0,79,0.00,,BKN070,0.01,VWS V14.01,2013-03-28 13:24:00,
2013-03-28 09:29:00,41.1,34.8,29.80,North,11,0.0,1.0,78,0.00,,BKN070,0.01,VWS V14.01,2013-03-28 13:29:00,
2013-03-28 09:34:00,41.4,34.4,29.80,North,9,0.0,0.0,76,0.00,,BKN070,0.01,VWS V14.01,2013-03-28 13:34:00,
2013-03-28 09:39:00,41.5,34.5,29.80,NE,46,0.0,0.0,76,0.00,,BKN070,0.01,VWS V14.01,2013-03-28 13:39:00,
2013-03-28 09:44:00,41.7,35.0,29.80,NNE,24,0.0,1.0,77,0.00,,BKN070,0.01,VWS V14.01,2013-03-28 13:44:00,
2013-03-28 09:49:00,41.9,34.9,29.80,NE,48,0.0,1.0,76,0.00,,BKN070,0.01,VWS V14.01,2013-03-28 13:49:00,
2013-03-28 09:54:00,42.2,34.5,29.80,NNW,342,0.0,3.0,74,0.00,,BKN070,0.01,VWS V14.01,2013-03-28 13:54:00,
2013-03-28 09:59:00,42.4,34.7,29.80,North,355,3.0,4.0,74,0.00,,OVC070,0.01,VWS V14.01,2013-03-28 13:59:00,
2013-03-28 10:04:00,42.6,34.2,29.80,NNW,338,0.0,1.0,72,0.00,,OVC070,0.01,VWS V14.01,2013-03-28 14:04:00,
2013-03-28 10:09:00,42.9,34.8,29.80,NW,323,1.0,4.0,73,0.00,,OVC070,0.01,VWS V14.01,2013-03-28 14:09:00,
2013-03-28 10:14:00,43.3,34.5,29.80,NW,317,0.0,2.0,71,0.00,,OVC070,0.01,VWS V14.01,2013-03-28 14:14:00,
2013-03-28 10:19:00,43.5,34.4,29.80,NNW,329,0.0,1.0,70,0.00,,OVC070,0.01,VWS V14.01,2013-03-28 14:19:00,
2013-03-28 10:24:00,43.7,34.6,29.80,NNW,335,3.0,3.0,70,0.00,,OVC070,0.01,VWS V14.01,2013-03-28 14:24:00,
2013-03-28 10:29:00,43.9,34.0,29.80,North,351,2.0,5.0,68,0.00,,OVC070,0.01,VWS V14.01,2013-03-28 14:29:00,
2013-03-28 10:34:00,44.0,34.1,29.80,SSW,203,0.0,0.0,68,0.00,,OVC070,0.01,VWS V14.01,2013-03-28 14:34:00,
2013-03-28 10:39:00,44.0,34.1,29.80,NW,313,0.0,2.0,68,0.00,,OVC070,0.01,VWS V14.01,2013-03-28 14:39:00,
2013-03-28 10:44:00,44.1,33.9,29.80,North,11,0.0,1.0,67,0.00,,OVC070,0.01,VWS V14.01,2013-03-28 14:44:00,
2013-03-28 10:49:00,44.2,34.3,29.80,NNW,348,1.0,4.0,68,0.00,,OVC070,0.01,VWS V14.01,2013-03-28 14:49:00,
2013-03-28 10:54:00,44.4,34.1,29.80,NNE,17,0.0,0.0,67,0.00,,OVC070,0.01,VWS V14.01,2013-03-28 14:54:00,
2013-03-28 10:59:00,44.5,34.6,29.80,NNE,17,0.0,1.0,68,0.00,,OVC070,0.01,VWS V14.01,2013-03-28 14:59:00,
2013-03-28 11:04:00,44.7,34.0,29.80,North,355,0.0,1.0,66,0.00,,OVC070,0.01,VWS V14.01,2013-03-28 15:04:00,
2013-03-28 11:09:00,44.7,34.4,29.80,NNE,31,0.0,0.0,67,0.00,,OVC070,0.01,VWS V14.01,2013-03-28 15:09:00,
2013-03-28 11:14:00,44.7,34.0,29.80,NNW,346,0.0,1.0,66,0.00,,OVC070,0.01,VWS V14.01,2013-03-28 15:14:00,
2013-03-28 11:19:00,44.7,34.0,29.80,North,355,1.0,2.0,66,0.00,,OVC070,0.01,VWS V14.01,2013-03-28 15:19:00,
2013-03-28 11:24:00,44.8,34.2,29.80,North,5,0.0,1.0,66,0.00,,OVC070,0.01,VWS V14.01,2013-03-28 15:24:00,
2013-03-28 11:29:00,45.0,34.0,29.80,ENE,74,0.0,1.0,65,0.00,,OVC070,0.01,VWS V14.01,2013-03-28 15:29:00,
2013-03-28 11:34:00,45.0,34.3,29.80,North,5,0.0,1.0,66,0.00,,OVC070,0.01,VWS V14.01,2013-03-28 15:34:00,
2013-03-28 11:39:00,45.0,34.3,29.80,NNW,333,1.0,4.0,66,0.00,,OVC070,0.01,VWS V14.01,2013-03-28 15:39:00,
2013-03-28 11:44:00,45.2,34.2,29.80,NNW,343,0.0,1.0,65,0.00,,OVC070,0.01,VWS V14.01,2013-03-28 15:44:00,
2013-03-28 11:49:00,45.3,33.9,29.80,NNW,344,0.0,1.0,64,0.00,,OVC070,0.01,VWS V14.01,2013-03-28 15:49:00,
2013-03-28 11:54:00,45.5,34.4,29.80,NNE,22,0.0,1.0,65,0.00,,OVC070,0.01,VWS V14.01,2013-03-28 15:54:00,
2013-03-28 11:59:00,45.5,34.4,29.80,NNE,26,0.0,1.0,65,0.00,,OVC065,0.01,VWS V14.01,2013-03-28 15:59:00,
2013-03-28 12:04:00,45.5,34.4,29.80,North,11,1.0,2.0,65,0.00,,OVC065,0.01,VWS V14.01,2013-03-28 16:04:00,
2013-03-28 12:09:00,45.6,34.1,29.80,NNE,13,0.0,0.0,64,0.00,,OVC065,0.01,VWS V14.01,2013-03-28 16:09:00,
2013-03-28 12:14:00,45.7,33.8,29.80,NNW,333,2.0,3.0,63,0.00,,OVC065,0.01,VWS V14.01,2013-03-28 16:14:00,
2013-03-28 12:19:00,46.0,33.7,29.80,NNW,344,0.0,1.0,62,0.00,,OVC065,0.01,VWS V14.01,2013-03-28 16:19:00,
2013-03-28 12:24:00,46.2,33.9,29.80,NNW,337,1.0,3.0,62,0.00,,OVC065,0.01,VWS V14.01,2013-03-28 16:24:00,
2013-03-28 12:29:00,46.4,33.7,29.80,NNE,19,0.0,1.0,61,0.00,,OVC065,0.01,VWS V14.01,2013-03-28 16:29:00,
2013-03-28 12:34:00,46.6,33.5,29.80,North,355,0.0,0.0,60,0.00,,OVC065,0.01,VWS V14.01,2013-03-28 16:34:00,
2013-03-28 12:39:00,46.9,34.6,29.80,North,355,0.0,1.0,62,0.00,,OVC065,0.01,VWS V14.01,2013-03-28 16:39:00,
2013-03-28 12:44:00,47.1,34.8,29.80,SE,126,0.0,0.0,62,0.00,,OVC065,0.01,VWS V14.01,2013-03-28 16:44:00,
2013-03-28 12:49:00,47.1,33.9,29.80,NE,39,0.0,0.0,60,0.00,,OVC065,0.01,VWS V14.01,2013-03-28 16:49:00,
2013-03-28 12:54:00,47.0,33.8,29.79,SSE,158,0.0,0.0,60,0.00,,OVC065,0.01,VWS V14.01,2013-03-28 16:54:00,
2013-03-28 12:59:00,47.1,34.4,29.80,NNW,330,0.0,0.0,61,0.00,,OVC070,0.01,VWS V14.01,2013-03-28 16:59:00,
2013-03-28 13:04:00,47.3,34.5,29.80,North,5,0.0,0.0,61,0.00,,OVC070,0.01,VWS V14.01,2013-03-28 17:04:00,
2013-03-28 13:09:00,47.5,34.7,29.79,ENE,59,1.0,1.0,61,0.00,,OVC070,0.01,VWS V14.01,2013-03-28 17:09:00,
2013-03-28 13:14:00,47.8,33.8,29.79,NNW,342,0.0,5.0,58,0.00,,OVC070,0.01,VWS V14.01,2013-03-28 17:14:00,
2013-03-28 13:19:00,48.2,34.1,29.79,SSW,205,0.0,0.0,58,0.00,,OVC070,0.01,VWS V14.01,2013-03-28 17:19:00,
2013-03-28 13:24:00,48.5,34.0,29.79,NNW,342,0.0,0.0,57,0.00,,OVC070,0.01,VWS V14.01,2013-03-28 17:24:00,
2013-03-28 13:29:00,48.4,33.9,29.79,NNW,348,0.0,4.0,57,0.00,,OVC070,0.01,VWS V14.01,2013-03-28 17:29:00,
2013-03-28 13:34:00,48.1,33.2,29.79,South,177,0.0,2.0,56,0.00,,OVC070,0.01,VWS V14.01,2013-03-28 17:34:00,
2013-03-28 13:39:00,47.8,33.3,29.78,SSE,166,0.0,1.0,57,0.00,,OVC070,0.01,VWS V14.01,2013-03-28 17:39:00,
2013-03-28 13:44:00,47.6,33.6,29.78,NNE,13,0.0,0.0,58,0.00,,OVC070,0.01,VWS V14.01,2013-03-28 17:44:00,
2013-03-28 13:49:00,47.7,33.2,29.78,ESE,110,0.0,0.0,57,0.00,,OVC070,0.01,VWS V14.01,2013-03-28 17:49:00,
2013-03-28 13:54:00,47.9,34.3,29.78,East,101,0.0,0.0,59,0.00,,OVC070,0.01,VWS V14.01,2013-03-28 17:54:00,
2013-03-28 13:59:00,48.1,33.6,29.78,SSE,165,0.0,1.0,57,0.00,,OVC075,0.01,VWS V14.01,2013-03-28 17:59:00,
2013-03-28 14:04:00,48.1,33.2,29.78,East,88,0.0,0.0,56,0.00,,OVC075,0.01,VWS V14.01,2013-03-28 18:04:00,
2013-03-28 14:09:00,47.9,33.4,29.78,NNE,21,0.0,0.0,57,0.00,,OVC075,0.01,VWS V14.01,2013-03-28 18:09:00,
2013-03-28 14:14:00,47.9,33.4,29.78,South,184,3.0,5.0,57,0.00,,OVC075,0.01,VWS V14.01,2013-03-28 18:14:00,
2013-03-28 14:19:00,47.8,33.3,29.78,South,173,0.0,0.0,57,0.00,,OVC075,0.01,VWS V14.01,2013-03-28 18:19:00,
2013-03-28 14:24:00,47.9,33.8,29.78,NNW,338,2.0,2.0,58,0.00,,OVC075,0.01,VWS V14.01,2013-03-28 18:24:00,
2013-03-28 14:29:00,48.1,33.2,29.78,NE,40,0.0,0.0,56,0.00,,OVC075,0.01,VWS V14.01,2013-03-28 18:29:00,
2013-03-28 14:34:00,48.2,33.3,29.78,South,180,0.0,0.0,56,0.00,,OVC075,0.01,VWS V14.01,2013-03-28 18:34:00,
2013-03-28 14:39:00,48.1,32.7,29.78,NNW,342,3.0,3.0,55,0.00,,OVC075,0.01,VWS V14.01,2013-03-28 18:39:00,
2013-03-28 14:44:00,47.9,32.5,29.78,North,5,1.0,1.0,55,0.00,,OVC075,0.01,VWS V14.01,2013-03-28 18:44:00,
2013-03-28 14:49:00,47.9,33.4,29.78,NNW,327,1.0,1.0,57,0.00,,OVC075,0.01,VWS V14.01,2013-03-28 18:49:00,
2013-03-28 14:54:00,47.8,33.8,29.78,East,98,0.0,0.0,58,0.00,,OVC075,0.01,VWS V14.01,2013-03-28 18:54:00,
2013-03-28 14:59:00,47.7,32.8,29.78,SE,139,0.0,0.0,56,0.00,,OVC050,0.01,VWS V14.01,2013-03-28 18:59:00,
2013-03-28 15:04:00,47.6,34.0,29.78,North,349,3.0,5.0,59,0.00,,OVC050,0.01,VWS V14.01,2013-03-28 19:04:00,
2013-03-28 15:09:00,47.2,33.2,29.78,South,174,2.0,2.0,58,0.00,,OVC050,0.01,VWS V14.01,2013-03-28 19:09:00,
2013-03-28 15:14:00,46.9,33.8,29.78,South,184,3.0,3.0,60,0.00,,OVC050,0.01,VWS V14.01,2013-03-28 19:14:00,
2013-03-28 15:19:00,46.6,33.5,29.78,North,10,0.0,0.0,60,0.00,,OVC050,0.01,VWS V14.01,2013-03-28 19:19:00,
2013-03-28 15:24:00,46.4,33.7,29.78,SSW,200,0.0,0.0,61,0.00,,OVC050,0.01,VWS V14.01,2013-03-28 19:24:00,
2013-03-28 15:29:00,46.3,33.6,29.78,WNW,283,0.0,0.0,61,0.00,,OVC050,0.01,VWS V14.01,2013-03-28 19:29:00,
2013-03-28 15:34:00,46.4,33.7,29.78,NNE,12,1.0,1.0,61,0.00,,OVC050,0.01,VWS V14.01,2013-03-28 19:34:00,
2013-03-28 15:39:00,46.4,33.3,29.78,NNE,31,0.0,0.0,60,0.00,,OVC050,0.01,VWS V14.01,2013-03-28 19:39:00,
2013-03-28 15:44:00,46.5,33.0,29.79,NE,34,0.0,1.0,59,0.00,,OVC050,0.01,VWS V14.01,2013-03-28 19:44:00,
2013-03-28 15:49:00,46.7,33.2,29.79,NNW,346,0.0,2.0,59,0.00,,OVC050,0.01,VWS V14.01,2013-03-28 19:49:00,
2013-03-28 15:54:00,46.7,33.2,29.79,NNW,344,0.0,2.0,59,0.00,,OVC050,0.01,VWS V14.01,2013-03-28 19:54:00,
2013-03-28 15:59:00,46.7,34.0,29.79,NNW,344,0.0,0.0,61,0.00,,OVC050,0.01,VWS V14.01,2013-03-28 19:59:00,
2013-03-28 16:04:00,46.7,34.0,29.79,NNW,344,0.0,0.0,61,0.00,,OVC050,0.01,VWS V14.01,2013-03-28 20:04:00,
2013-03-28 16:09:00,46.9,34.6,29.79,NNW,342,0.0,0.0,62,0.00,,OVC050,0.01,VWS V14.01,2013-03-28 20:09:00,
2013-03-28 16:14:00,46.9,34.2,29.79,NNW,343,0.0,0.0,61,0.00,,OVC050,0.01,VWS V14.01,2013-03-28 20:14:00,
2013-03-28 16:19:00,47.0,34.3,29.79,NNW,343,0.0,1.0,61,0.00,,OVC050,0.01,VWS V14.01,2013-03-28 20:19:00,
2013-03-28 16:24:00,47.0,34.3,29.79,NNW,343,0.0,0.0,61,0.00,,OVC050,0.01,VWS V14.01,2013-03-28 20:24:00,
2013-03-28 16:29:00,47.1,34.4,29.79,NNW,343,0.0,0.0,61,0.00,,OVC050,0.01,VWS V14.01,2013-03-28 20:29:00,
2013-03-28 16:34:00,47.1,33.9,29.79,NNW,343,0.0,1.0,60,0.00,,OVC050,0.01,VWS V14.01,2013-03-28 20:34:00,
2013-03-28 16:39:00,47.0,33.8,29.79,NNW,343,0.0,0.0,60,0.00,,OVC050,0.01,VWS V14.01,2013-03-28 20:39:00,
2013-03-28 16:44:00,46.9,34.2,29.79,NNW,343,0.0,0.0,61,0.00,,OVC050,0.01,VWS V14.01,2013-03-28 20:44:00,
2013-03-28 16:49:00,46.7,34.0,29.79,NNW,343,0.0,0.0,61,0.00,,OVC050,0.01,VWS V14.01,2013-03-28 20:49:00,
2013-03-28 16:54:00,46.6,34.3,29.80,NNW,343,0.0,0.0,62,0.00,,OVC050,0.01,VWS V14.01,2013-03-28 20:54:00,
2013-03-28 16:59:00,46.4,34.5,29.80,NNW,343,0.0,0.0,63,0.00,,OVC080,0.01,VWS V14.01,2013-03-28 20:59:00,
2013-03-28 17:04:00,46.1,33.8,29.80,NNW,346,0.0,0.0,62,0.00,,OVC080,0.01,VWS V14.01,2013-03-28 21:04:00,
2013-03-28 17:09:00,46.1,34.2,29.80,North,11,1.0,1.0,63,0.00,,OVC080,0.01,VWS V14.01,2013-03-28 21:09:00,
2013-03-28 17:14:00,46.1,33.8,29.80,ENE,74,0.0,1.0,62,0.00,,OVC080,0.01,VWS V14.01,2013-03-28 21:14:00,
2013-03-28 17:19:00,46.0,33.3,29.81,WSW,242,0.0,1.0,61,0.00,,OVC080,0.01,VWS V14.01,2013-03-28 21:19:00,
2013-03-28 17:24:00,45.9,33.2,29.81,NW,315,0.0,0.0,61,0.00,,OVC080,0.01,VWS V14.01,2013-03-28 21:24:00,
2013-03-28 17:29:00,45.8,33.5,29.81,North,355,0.0,0.0,62,0.00,,OVC080,0.01,VWS V14.01,2013-03-28 21:29:00,
2013-03-28 17:34:00,45.8,33.1,29.81,NE,36,0.0,0.0,61,0.00,,OVC080,0.01,VWS V14.01,2013-03-28 21:34:00,
2013-03-28 17:39:00,45.8,33.1,29.82,NNW,340,0.0,0.0,61,0.00,,OVC080,0.01,VWS V14.01,2013-03-28 21:39:00,
2013-03-28 17:44:00,45.8,33.5,29.82,North,9,0.0,0.0,62,0.00,,OVC080,0.01,VWS V14.01,2013-03-28 21:44:00,
2013-03-28 17:49:00,45.7,33.8,29.82,North,11,0.0,0.0,63,0.00,,OVC080,0.01,VWS V14.01,2013-03-28 21:49:00,
2013-03-28 17:54:00,45.5,33.7,29.82,North,5,0.0,0.0,63,0.00,,OVC080,0.01,VWS V14.01,2013-03-28 21:54:00,
2013-03-28 17:59:00,45.4,34.0,29.82,North,349,0.0,1.0,64,0.00,,OVC050,0.01,VWS V14.01,2013-03-28 21:59:00,
2013-03-28 18:04:00,45.3,33.9,29.82,NNW,346,0.0,2.0,64,0.00,,OVC050,0.01,VWS V14.01,2013-03-28 22:04:00,
2013-03-28 18:09:00,45.2,34.2,29.82,NNW,346,0.0,0.0,65,0.00,,OVC050,0.01,VWS V14.01,2013-03-28 22:09:00,
2013-03-28 18:14:00,45.0,34.0,29.82,NNW,346,0.0,0.0,65,0.00,,OVC050,0.01,VWS V14.01,2013-03-28 22:14:00,
2013-03-28 18:19:00,44.9,34.2,29.83,NNW,346,0.0,0.0,66,0.00,,OVC050,0.01,VWS V14.01,2013-03-28 22:19:00,
2013-03-28 18:24:00,44.7,34.4,29.83,NNW,346,0.0,0.0,67,0.00,,OVC050,0.01,VWS V14.01,2013-03-28 22:24:00,
2013-03-28 18:29:00,44.5,34.2,29.83,NNW,346,0.0,0.0,67,0.00,,OVC050,0.01,VWS V14.01,2013-03-28 22:29:00,
2013-03-28 18:34:00,44.3,34.4,29.83,NNW,346,0.0,0.0,68,0.00,,OVC050,0.01,VWS V14.01,2013-03-28 22:34:00,
2013-03-28 18:39:00,44.0,34.9,29.83,NNW,346,0.0,0.0,70,0.00,,OVC050,0.01,VWS V14.01,2013-03-28 22:39:00,
2013-03-28 18:44:00,43.6,34.8,29.83,NNW,346,0.0,0.0,71,0.00,,OVC050,0.01,VWS V14.01,2013-03-28 22:44:00,
2013-03-28 18:49:00,43.3,34.5,29.84,NNW,346,0.0,0.0,71,0.00,,OVC050,0.01,VWS V14.01,2013-03-28 22:49:00,
2013-03-28 18:54:00,43.0,34.2,29.84,NNW,346,0.0,0.0,71,0.00,,OVC050,0.01,VWS V14.01,2013-03-28 22:54:00,
2013-03-28 18:59:00,42.7,34.3,29.84,NNW,346,0.0,0.0,72,0.00,,OVC075,0.01,VWS V14.01,2013-03-28 22:59:00,
2013-03-28 19:04:00,42.4,34.0,29.84,NNW,346,0.0,0.0,72,0.00,,OVC075,0.01,VWS V14.01,2013-03-28 23:04:00,
2013-03-28 19:09:00,42.1,34.1,29.84,NNW,346,0.0,0.0,73,0.00,,OVC075,0.01,VWS V14.01,2013-03-28 23:09:00,
2013-03-28 19:14:00,41.9,33.9,29.84,NNW,346,0.0,0.0,73,0.00,,OVC075,0.01,VWS V14.01,2013-03-28 23:14:00,
2013-03-28 19:19:00,41.7,34.0,29.84,NNW,346,0.0,0.0,74,0.00,,OVC075,0.01,VWS V14.01,2013-03-28 23:19:00,
2013-03-28 19:24:00,41.5,34.2,29.85,NNW,346,0.0,0.0,75,0.00,,OVC075,0.01,VWS V14.01,2013-03-28 23:24:00,
2013-03-28 19:29:00,41.3,34.0,29.85,NNW,346,0.0,0.0,75,0.00,,OVC075,0.01,VWS V14.01,2013-03-28 23:29:00,
2013-03-28 19:34:00,41.1,33.8,29.85,NNW,346,0.0,0.0,75,0.00,,OVC075,0.01,VWS V14.01,2013-03-28 23:34:00,
2013-03-28 19:39:00,40.9,33.6,29.85,NNW,346,0.0,0.0,75,0.00,,OVC075,0.01,VWS V14.01,2013-03-28 23:39:00,
2013-03-28 19:44:00,40.8,33.8,29.85,NNW,346,0.0,0.0,76,0.00,,OVC075,0.01,VWS V14.01,2013-03-28 23:44:00,
2013-03-28 19:49:00,40.6,34.0,29.85,NNW,346,0.0,0.0,77,0.00,,OVC075,0.01,VWS V14.01,2013-03-28 23:49:00,
2013-03-28 19:54:00,40.4,33.8,29.85,NNW,346,0.0,0.0,77,0.00,,OVC075,0.01,VWS V14.01,2013-03-28 23:54:00,
2013-03-28 19:59:00,40.3,33.7,29.85,NNW,346,0.0,0.0,77,0.00,,OVC080,0.01,VWS V14.01,2013-03-28 23:59:00,
2013-03-28 20:04:00,40.1,33.5,29.85,NNW,346,0.0,0.0,77,0.00,,OVC080,0.01,VWS V14.01,2013-03-29 00:04:00,
2013-03-28 20:09:00,40.0,33.7,29.86,NNW,346,0.0,0.0,78,0.00,,OVC080,0.01,VWS V14.01,2013-03-29 00:09:00,
2013-03-28 20:14:00,39.9,33.6,29.86,NNW,346,0.0,0.0,78,0.00,,OVC080,0.01,VWS V14.01,2013-03-29 00:14:00,
2013-03-28 20:19:00,39.7,33.4,29.86,NNW,346,0.0,0.0,78,0.00,,OVC080,0.01,VWS V14.01,2013-03-29 00:19:00,
2013-03-28 20:24:00,39.6,33.6,29.86,NNW,346,0.0,0.0,79,0.00,,OVC080,0.01,VWS V14.01,2013-03-29 00:24:00,
2013-03-28 20:29:00,39.6,33.6,29.86,NNW,346,0.0,0.0,79,0.00,,OVC080,0.01,VWS V14.01,2013-03-29 00:29:00,
2013-03-28 20:34:00,39.6,34.0,29.86,NNW,346,0.0,0.0,80,0.00,,OVC080,0.01,VWS V14.01,2013-03-29 00:34:00,
2013-03-28 20:39:00,39.6,33.6,29.86,NNW,346,0.0,0.0,79,0.00,,OVC080,0.01,VWS V14.01,2013-03-29 00:39:00,
2013-03-28 20:44:00,39.6,34.0,29.86,NNW,346,0.0,0.0,80,0.00,,OVC080,0.01,VWS V14.01,2013-03-29 00:44:00,
2013-03-28 20:49:00,39.5,33.5,29.86,NNW,346,0.0,0.0,79,0.00,,OVC080,0.01,VWS V14.01,2013-03-29 00:49:00,
2013-03-28 20:54:00,39.5,33.2,29.86,NNW,346,0.0,0.0,78,0.00,,OVC080,0.01,VWS V14.01,2013-03-29 00:54:00,
2013-03-28 20:59:00,39.5,33.2,29.86,NNW,346,0.0,0.0,78,0.00,,OVC090,0.01,VWS V14.01,2013-03-29 00:59:00,
2013-03-28 21:04:00,39.6,33.3,29.87,NNW,346,0.0,0.0,78,0.00,,OVC090,0.01,VWS V14.01,2013-03-29 01:04:00,
2013-03-28 21:09:00,39.6,33.0,29.87,NNW,346,0.0,0.0,77,0.00,,OVC090,0.01,VWS V14.01,2013-03-29 01:09:00,
2013-03-28 21:14:00,39.8,33.2,29.87,NNW,346,0.0,0.0,77,0.00,,OVC090,0.01,VWS V14.01,2013-03-29 01:14:00,
2013-03-28 21:19:00,40.0,33.7,29.87,NNW,346,0.0,0.0,78,0.00,,OVC090,0.01,VWS V14.01,2013-03-29 01:19:00,
2013-03-28 21:24:00,40.0,33.4,29.87,NNW,346,0.0,0.0,77,0.00,,OVC090,0.01,VWS V14.01,2013-03-29 01:24:00,
2013-03-28 21:29:00,40.0,33.7,29.87,NNW,346,0.0,0.0,78,0.00,,OVC090,0.01,VWS V14.01,2013-03-29 01:29:00,
2013-03-28 21:34:00,39.8,33.5,29.87,NNW,346,0.0,0.0,78,0.00,,OVC090,0.01,VWS V14.01,2013-03-29 01:34:00,
2013-03-28 21:39:00,39.7,33.4,29.87,NNW,346,0.0,0.0,78,0.00,,OVC090,0.01,VWS V14.01,2013-03-29 01:39:00,
2013-03-28 21:44:00,39.6,33.3,29.87,NNW,346,0.0,0.0,78,0.00,,OVC090,0.01,VWS V14.01,2013-03-29 01:44:00,
2013-03-28 21:49:00,39.5,33.5,29.87,NNW,346,0.0,0.0,79,0.00,,OVC090,0.01,VWS V14.01,2013-03-29 01:49:00,
2013-03-28 21:54:00,39.5,33.5,29.88,NNW,346,0.0,0.0,79,0.00,,OVC090,0.01,VWS V14.01,2013-03-29 01:54:00,
2013-03-28 21:59:00,39.4,33.4,29.88,NNW,346,0.0,0.0,79,0.00,,OVC090,0.01,VWS V14.01,2013-03-29 01:59:00,
2013-03-28 22:04:00,39.3,33.7,29.88,NNW,346,0.0,0.0,80,0.00,,OVC090,0.01,VWS V14.01,2013-03-29 02:04:00,
2013-03-28 22:09:00,39.3,33.7,29.87,NNW,346,0.0,0.0,80,0.00,,OVC090,0.01,VWS V14.01,2013-03-29 02:09:00,
2013-03-28 22:14:00,39.1,33.5,29.87,NNW,346,0.0,0.0,80,0.00,,OVC090,0.01,VWS V14.01,2013-03-29 02:14:00,
2013-03-28 22:19:00,39.1,33.5,29.87,NNW,346,0.0,0.0,80,0.00,,OVC090,0.01,VWS V14.01,2013-03-29 02:19:00,
2013-03-28 22:24:00,38.9,33.6,29.87,NNW,346,0.0,0.0,81,0.00,,OVC090,0.01,VWS V14.01,2013-03-29 02:24:00,
2013-03-28 22:29:00,38.8,33.5,29.87,NNW,346,0.0,0.0,81,0.00,,OVC090,0.01,VWS V14.01,2013-03-29 02:29:00,
2013-03-28 22:34:00,38.7,33.4,29.87,NNW,346,0.0,0.0,81,0.00,,OVC090,0.01,VWS V14.01,2013-03-29 02:34:00,
2013-03-28 22:39:00,38.6,33.3,29.87,NNW,346,0.0,0.0,81,0.00,,OVC090,0.01,VWS V14.01,2013-03-29 02:39:00,
2013-03-28 22:44:00,38.6,33.6,29.87,NNW,346,0.0,0.0,82,0.00,,OVC090,0.01,VWS V14.01,2013-03-29 02:44:00,
2013-03-28 22:49:00,38.5,33.5,29.87,NNW,346,0.0,0.0,82,0.00,,OVC090,0.01,VWS V14.01,2013-03-29 02:49:00,
2013-03-28 22:54:00,38.4,33.4,29.87,NNW,346,0.0,0.0,82,0.00,,OVC090,0.01,VWS V14.01,2013-03-29 02:54:00,
2013-03-28 22:59:00,38.4,33.4,29.87,NNW,346,0.0,0.0,82,0.00,,OVC090,0.01,VWS V14.01,2013-03-29 02:59:00,
2013-03-28 23:04:00,38.3,33.3,29.87,NNW,346,0.0,0.0,82,0.00,,OVC090,0.01,VWS V14.01,2013-03-29 03:04:00,
2013-03-28 23:09:00,38.3,33.6,29.87,NNW,346,0.0,0.0,83,0.00,,OVC090,0.01,VWS V14.01,2013-03-29 03:09:00,
2013-03-28 23:14:00,38.2,33.5,29.87,NNW,346,0.0,0.0,83,0.00,,OVC090,0.01,VWS V14.01,2013-03-29 03:14:00,
2013-03-28 23:19:00,38.1,33.4,29.87,NNW,346,0.0,0.0,83,0.00,,OVC090,0.01,VWS V14.01,2013-03-29 03:19:00,
2013-03-28 23:24:00,38.0,33.3,29.87,NNW,346,0.0,0.0,83,0.00,,OVC090,0.01,VWS V14.01,2013-03-29 03:24:00,
2013-03-28 23:29:00,37.9,33.5,29.87,NNW,346,0.0,0.0,84,0.00,,OVC090,0.01,VWS V14.01,2013-03-29 03:29:00,
2013-03-28 23:34:00,37.9,33.5,29.87,NNW,346,0.0,0.0,84,0.00,,OVC090,0.01,VWS V14.01,2013-03-29 03:34:00,
2013-03-28 23:39:00,37.8,33.4,29.87,NNW,346,0.0,0.0,84,0.00,,OVC090,0.01,VWS V14.01,2013-03-29 03:39:00,
2013-03-28 23:44:00,37.7,33.3,29.87,NNW,346,0.0,0.0,84,0.00,,OVC090,0.01,VWS V14.01,2013-03-29 03:44:00,
2013-03-28 23:49:00,37.6,33.5,29.87,NNW,346,0.0,0.0,85,0.00,,OVC090,0.01,VWS V14.01,2013-03-29 03:49:00,
2013-03-28 23:54:00,37.6,33.5,29.87,NNW,346,0.0,0.0,85,0.00,,OVC090,0.01,VWS V14.01,2013-03-29 03:54:00,
2013-03-28 23:59:00,37.5,33.4,29.87,NNW,346,0.0,0.0,85,0.00,,OVC090,0.01,VWS V14.01,2013-03-29 03:59:00,